sensor_id;sensor_type;location;lat;lon;timestamp;temperature;humidity
4293;DHT22;2160;51.172;6.808;2024-03-08T00:00:00;7.80;96.00
4293;DHT22;2160;51.172;6.808;2024-03-08T05:01:03;5.30;99.90
4293;DHT22;2160;51.172;6.808;2024-03-08T05:03:30;5.30;99.90
4293;DHT22;2160;51.172;6.808;2024-03-08T05:05:57;5.40;99.90
4293;DHT22;2160;51.172;6.808;2024-03-08T05:08:24;5.40;99.90
4293;DHT22;2160;51.172;6.808;2024-03-08T05:10:51;5.20;99.90
4293;DHT22;2160;51.172;6.808;2024-03-08T05:13:18;5.20;99.90
4293;DHT22;2160;51.172;6.808;2024-03-08T05:15:48;5.20;99.90
4293;DHT22;2160;51.172;6.808;2024-03-08T05:18:17;5.10;99.90
4293;DHT22;2160;51.172;6.808;2024-03-08T05:20:44;5.20;99.90
4293;DHT22;2160;51.172;6.808;2024-03-08T05:23:11;5.20;99.90
4293;DHT22;2160;51.172;6.808;2024-03-08T05:25:38;5.20;99.90
4293;DHT22;2160;51.172;6.808;2024-03-08T05:28:05;5.20;99.90
4293;DHT22;2160;51.172;6.808;2024-03-08T05:30:32;5.20;99.90
4293;DHT22;2160;51.172;6.808;2024-03-08T05:33:01;5.00;99.90
4293;DHT22;2160;51.172;6.808;2024-03-08T05:35:31;5.00;99.90
4293;DHT22;2160;51.172;6.808;2024-03-08T05:37:58;5.00;99.90
4293;DHT22;2160;51.172;6.808;2024-03-08T05:40:25;5.00;99.90
4293;DHT22;2160;51.172;6.808;2024-03-08T05:42:52;5.00;99.90
4293;DHT22;2160;51.172;6.808;2024-03-08T05:45:18;5.00;99.90
4293;DHT22;2160;51.172;6.808;2024-03-08T05:47:45;5.00;99.90
4293;DHT22;2160;51.172;6.808;2024-03-08T05:50:13;5.00;99.90
4293;DHT22;2160;51.172;6.808;2024-03-08T05:52:43;5.00;99.90
4293;DHT22;2160;51.172;6.808;2024-03-08T05:55:10;4.90;99.90
4293;DHT22;2160;51.172;6.808;2024-03-08T05:57:40;4.90;99.90
4293;DHT22;2160;51.172;6.808;2024-03-08T06:00:08;4.90;99.90
4293;DHT22;2160;51.172;6.808;2024-03-08T06:02:40;5.10;99.90
4293;DHT22;2160;51.172;6.808;2024-03-08T06:05:09;5.30;99.90
4293;DHT22;2160;51.172;6.808;2024-03-08T06:07:36;5.30;99.90
4293;DHT22;2160;51.172;6.808;2024-03-08T06:10:08;5.30;99.90
4293;DHT22;2160;51.172;6.808;2024-03-08T06:12:38;5.40;99.90
4293;DHT22;2160;51.172;6.808;2024-03-08T06:15:07;5.50;99.90
4293;DHT22;2160;51.172;6.808;2024-03-08T06:17:35;5.70;99.90
4293;DHT22;2160;51.172;6.808;2024-03-08T06:20:03;5.60;99.90
4293;DHT22;2160;51.172;6.808;2024-03-08T06:22:36;5.80;99.90
4293;DHT22;2160;51.172;6.808;2024-03-08T06:25:04;5.80;99.90
4293;DHT22;2160;51.172;6.808;2024-03-08T06:27:32;5.90;99.90
4293;DHT22;2160;51.172;6.808;2024-03-08T06:29:59;6.00;99.90
4293;DHT22;2160;51.172;6.808;2024-03-08T06:32:26;6.20;99.90
4293;DHT22;2160;51.172;6.808;2024-03-08T06:34:53;6.20;99.90
4293;DHT22;2160;51.172;6.808;2024-03-08T06:37:20;6.50;99.90
4293;DHT22;2160;51.172;6.808;2024-03-08T06:39:49;6.30;99.90
4293;DHT22;2160;51.172;6.808;2024-03-08T06:42:17;6.30;99.90
4293;DHT22;2160;51.172;6.808;2024-03-08T06:44:45;6.40;99.90
4293;DHT22;2160;51.172;6.808;2024-03-08T06:47:15;6.40;99.90
4293;DHT22;2160;51.172;6.808;2024-03-08T06:49:42;6.50;99.90
4293;DHT22;2160;51.172;6.808;2024-03-08T06:52:09;6.60;99.90
4293;DHT22;2160;51.172;6.808;2024-03-08T06:54:37;6.70;99.90
4293;DHT22;2160;51.172;6.808;2024-03-08T06:57:04;6.90;99.90
4293;DHT22;2160;51.172;6.808;2024-03-08T06:59:32;6.60;99.90
4293;DHT22;2160;51.172;6.808;2024-03-08T07:02:03;6.90;99.90
4293;DHT22;2160;51.172;6.808;2024-03-08T07:04:30;6.80;99.90
4293;DHT22;2160;51.172;6.808;2024-03-08T07:06:59;7.00;99.90
4293;DHT22;2160;51.172;6.808;2024-03-08T07:09:28;7.00;99.90
4293;DHT22;2160;51.172;6.808;2024-03-08T07:11:55;7.30;99.90
4293;DHT22;2160;51.172;6.808;2024-03-08T07:14:22;7.20;99.90
4293;DHT22;2160;51.172;6.808;2024-03-08T07:16:49;7.20;99.90
4293;DHT22;2160;51.172;6.808;2024-03-08T07:19:18;7.40;99.90
4293;DHT22;2160;51.172;6.808;2024-03-08T07:21:45;7.40;99.90
4293;DHT22;2160;51.172;6.808;2024-03-08T07:24:13;7.40;99.90
4293;DHT22;2160;51.172;6.808;2024-03-08T07:26:50;7.50;99.90
4293;DHT22;2160;51.172;6.808;2024-03-08T07:29:17;7.60;99.90
4293;DHT22;2160;51.172;6.808;2024-03-08T07:31:44;7.70;99.90
4293;DHT22;2160;51.172;6.808;2024-03-08T07:34:22;7.80;99.90
4293;DHT22;2160;51.172;6.808;2024-03-08T07:36:49;8.00;99.90
4293;DHT22;2160;51.172;6.808;2024-03-08T07:39:16;8.00;99.90
4293;DHT22;2160;51.172;6.808;2024-03-08T07:41:44;8.30;99.90
4293;DHT22;2160;51.172;6.808;2024-03-08T07:44:11;8.50;99.90
4293;DHT22;2160;51.172;6.808;2024-03-08T07:46:40;8.40;99.90
4293;DHT22;2160;51.172;6.808;2024-03-08T07:49:07;8.50;99.90
4293;DHT22;2160;51.172;6.808;2024-03-08T07:51:38;8.70;99.90
4293;DHT22;2160;51.172;6.808;2024-03-08T07:54:05;9.20;99.90
4293;DHT22;2160;51.172;6.808;2024-03-08T07:56:34;9.80;99.10
4293;DHT22;2160;51.172;6.808;2024-03-08T07:59:02;10.10;97.10
4293;DHT22;2160;51.172;6.808;2024-03-08T08:01:29;10.10;96.20
4293;DHT22;2160;51.172;6.808;2024-03-08T08:03:57;9.90;96.50
4293;DHT22;2160;51.172;6.808;2024-03-08T08:06:24;9.80;97.90
4293;DHT22;2160;51.172;6.808;2024-03-08T08:08:52;9.60;96.60
4293;DHT22;2160;51.172;6.808;2024-03-08T08:11:20;9.70;97.60
4293;DHT22;2160;51.172;6.808;2024-03-08T08:13:47;9.50;97.40
4293;DHT22;2160;51.172;6.808;2024-03-08T08:16:14;9.40;98.70
4293;DHT22;2160;51.172;6.808;2024-03-08T08:18:41;9.60;98.90
4293;DHT22;2160;51.172;6.808;2024-03-08T08:21:09;10.10;97.40
4293;DHT22;2160;51.172;6.808;2024-03-08T08:23:36;10.40;96.90
4293;DHT22;2160;51.172;6.808;2024-03-08T08:26:05;10.10;94.90
4293;DHT22;2160;51.172;6.808;2024-03-08T08:28:33;10.20;95.70
4293;DHT22;2160;51.172;6.808;2024-03-08T08:31:00;9.70;96.70
4293;DHT22;2160;51.172;6.808;2024-03-08T08:33:29;9.40;95.60
4293;DHT22;2160;51.172;6.808;2024-03-08T08:35:56;9.40;96.50
4293;DHT22;2160;51.172;6.808;2024-03-08T08:38:24;9.30;96.50
4293;DHT22;2160;51.172;6.808;2024-03-08T08:40:51;9.40;97.00
4293;DHT22;2160;51.172;6.808;2024-03-08T08:43:19;9.50;96.60
4293;DHT22;2160;51.172;6.808;2024-03-08T08:45:49;9.50;96.90
4293;DHT22;2160;51.172;6.808;2024-03-08T08:48:20;9.60;97.80
4293;DHT22;2160;51.172;6.808;2024-03-08T08:50:47;9.70;97.10
4293;DHT22;2160;51.172;6.808;2024-03-08T08:53:16;9.90;97.90
4293;DHT22;2160;51.172;6.808;2024-03-08T08:55:44;10.00;96.10
4293;DHT22;2160;51.172;6.808;2024-03-08T08:58:11;9.70;95.70
4293;DHT22;2160;51.172;6.808;2024-03-08T09:00:40;9.90;96.00
4293;DHT22;2160;51.172;6.808;2024-03-08T09:03:07;9.80;96.30
4293;DHT22;2160;51.172;6.808;2024-03-08T09:05:34;9.70;96.60
4293;DHT22;2160;51.172;6.808;2024-03-08T09:08:01;9.80;96.20
4293;DHT22;2160;51.172;6.808;2024-03-08T09:10:28;10.00;96.50
4293;DHT22;2160;51.172;6.808;2024-03-08T09:12:55;10.10;94.20
4293;DHT22;2160;51.172;6.808;2024-03-08T09:15:22;10.20;94.50
4293;DHT22;2160;51.172;6.808;2024-03-08T09:17:52;10.30;95.80
4293;DHT22;2160;51.172;6.808;2024-03-08T09:20:19;10.30;94.20
4293;DHT22;2160;51.172;6.808;2024-03-08T09:22:46;10.30;93.90
4293;DHT22;2160;51.172;6.808;2024-03-08T09:25:13;10.30;95.10
4293;DHT22;2160;51.172;6.808;2024-03-08T09:27:41;10.20;93.40
4293;DHT22;2160;51.172;6.808;2024-03-08T09:30:08;10.30;94.90
4293;DHT22;2160;51.172;6.808;2024-03-08T09:32:40;10.50;94.30
4293;DHT22;2160;51.172;6.808;2024-03-08T09:35:08;10.50;93.50
4293;DHT22;2160;51.172;6.808;2024-03-08T09:37:36;10.70;93.70
4293;DHT22;2160;51.172;6.808;2024-03-08T09:40:05;10.90;93.70
4293;DHT22;2160;51.172;6.808;2024-03-08T09:42:35;10.60;91.40
4293;DHT22;2160;51.172;6.808;2024-03-08T09:45:05;10.30;92.30
4293;DHT22;2160;51.172;6.808;2024-03-08T09:47:37;10.50;92.20
4293;DHT22;2160;51.172;6.808;2024-03-08T09:50:08;10.60;93.30
4293;DHT22;2160;51.172;6.808;2024-03-08T09:52:36;10.60;92.30
4293;DHT22;2160;51.172;6.808;2024-03-08T09:55:05;10.60;92.00
4293;DHT22;2160;51.172;6.808;2024-03-08T09:57:33;10.70;92.40
4293;DHT22;2160;51.172;6.808;2024-03-08T10:00:00;11.00;92.00
4293;DHT22;2160;51.172;6.808;2024-03-08T10:02:26;11.10;91.40
4293;DHT22;2160;51.172;6.808;2024-03-08T10:04:53;11.20;91.70
4293;DHT22;2160;51.172;6.808;2024-03-08T10:07:21;11.30;91.00
4293;DHT22;2160;51.172;6.808;2024-03-08T10:09:52;11.20;91.30
4293;DHT22;2160;51.172;6.808;2024-03-08T10:12:19;11.30;91.00
4293;DHT22;2160;51.172;6.808;2024-03-08T10:14:46;11.40;91.30
4293;DHT22;2160;51.172;6.808;2024-03-08T10:17:14;11.70;92.20
4293;DHT22;2160;51.172;6.808;2024-03-08T10:19:49;11.90;91.10
4293;DHT22;2160;51.172;6.808;2024-03-08T10:22:16;11.90;91.70
4293;DHT22;2160;51.172;6.808;2024-03-08T10:24:46;11.90;91.00
4293;DHT22;2160;51.172;6.808;2024-03-08T10:27:13;11.70;88.90
4293;DHT22;2160;51.172;6.808;2024-03-08T10:29:41;11.80;90.40
4293;DHT22;2160;51.172;6.808;2024-03-08T10:32:10;11.80;88.80
4293;DHT22;2160;51.172;6.808;2024-03-08T10:34:37;11.90;88.00
4293;DHT22;2160;51.172;6.808;2024-03-08T10:37:05;12.00;90.10
4293;DHT22;2160;51.172;6.808;2024-03-08T10:39:35;12.00;87.60
4293;DHT22;2160;51.172;6.808;2024-03-08T10:42:04;11.90;89.00
4293;DHT22;2160;51.172;6.808;2024-03-08T10:44:43;12.00;86.80
4293;DHT22;2160;51.172;6.808;2024-03-08T10:47:17;12.10;85.00
4293;DHT22;2160;51.172;6.808;2024-03-08T10:49:54;12.20;85.40
4293;DHT22;2160;51.172;6.808;2024-03-08T10:52:21;12.40;85.60
4293;DHT22;2160;51.172;6.808;2024-03-08T10:54:49;12.50;89.10
4293;DHT22;2160;51.172;6.808;2024-03-08T10:57:19;12.60;88.10
4293;DHT22;2160;51.172;6.808;2024-03-08T10:59:47;12.80;85.90
4293;DHT22;2160;51.172;6.808;2024-03-08T11:02:16;12.70;82.70
4293;DHT22;2160;51.172;6.808;2024-03-08T11:04:47;12.60;85.80
4293;DHT22;2160;51.172;6.808;2024-03-08T11:07:16;12.80;84.40
4293;DHT22;2160;51.172;6.808;2024-03-08T11:09:48;12.80;86.50
4293;DHT22;2160;51.172;6.808;2024-03-08T11:12:26;12.80;79.70
4293;DHT22;2160;51.172;6.808;2024-03-08T11:14:57;12.90;81.20
4293;DHT22;2160;51.172;6.808;2024-03-08T11:17:40;12.90;81.70
4293;DHT22;2160;51.172;6.808;2024-03-08T11:20:10;12.60;75.30
4293;DHT22;2160;51.172;6.808;2024-03-08T11:22:42;12.50;77.70
4293;DHT22;2160;51.172;6.808;2024-03-08T11:25:31;12.60;78.30
4293;DHT22;2160;51.172;6.808;2024-03-08T11:28:13;12.70;80.70
4293;DHT22;2160;51.172;6.808;2024-03-08T11:33:31;13.00;76.30
4293;DHT22;2160;51.172;6.808;2024-03-08T11:36:02;13.20;80.10
4293;DHT22;2160;51.172;6.808;2024-03-08T11:38:32;13.50;79.40
4293;DHT22;2160;51.172;6.808;2024-03-08T11:40:59;13.70;81.50
4293;DHT22;2160;51.172;6.808;2024-03-08T11:43:28;13.70;77.80
4293;DHT22;2160;51.172;6.808;2024-03-08T11:46:07;13.40;72.60
4293;DHT22;2160;51.172;6.808;2024-03-08T11:48:35;13.40;75.10
4293;DHT22;2160;51.172;6.808;2024-03-08T11:51:04;13.40;73.00
4293;DHT22;2160;51.172;6.808;2024-03-08T11:53:32;13.60;74.90
4293;DHT22;2160;51.172;6.808;2024-03-08T11:56:06;14.00;77.70
4293;DHT22;2160;51.172;6.808;2024-03-08T11:58:35;14.10;72.60
4293;DHT22;2160;51.172;6.808;2024-03-08T12:01:03;14.20;73.30
4293;DHT22;2160;51.172;6.808;2024-03-08T12:03:31;14.20;71.80
4293;DHT22;2160;51.172;6.808;2024-03-08T12:05:59;14.30;75.80
4293;DHT22;2160;51.172;6.808;2024-03-08T12:08:25;14.50;73.70
4293;DHT22;2160;51.172;6.808;2024-03-08T12:10:53;14.50;69.90
4293;DHT22;2160;51.172;6.808;2024-03-08T12:13:25;14.70;72.60
4293;DHT22;2160;51.172;6.808;2024-03-08T12:15:57;14.80;67.80
4293;DHT22;2160;51.172;6.808;2024-03-08T12:18:25;15.00;71.60
4293;DHT22;2160;51.172;6.808;2024-03-08T12:21:04;15.00;69.70
4293;DHT22;2160;51.172;6.808;2024-03-08T12:23:33;15.10;69.30
4293;DHT22;2160;51.172;6.808;2024-03-08T12:26:09;15.30;68.70
4293;DHT22;2160;51.172;6.808;2024-03-08T12:28:39;15.20;67.20
4293;DHT22;2160;51.172;6.808;2024-03-08T12:31:08;15.40;69.00
4293;DHT22;2160;51.172;6.808;2024-03-08T12:33:37;15.60;63.40
4293;DHT22;2160;51.172;6.808;2024-03-08T12:36:04;15.80;64.60
4293;DHT22;2160;51.172;6.808;2024-03-08T12:38:33;15.90;64.40
4293;DHT22;2160;51.172;6.808;2024-03-08T12:41:01;16.20;66.80
4293;DHT22;2160;51.172;6.808;2024-03-08T12:43:29;16.50;63.70
4293;DHT22;2160;51.172;6.808;2024-03-08T12:45:57;16.60;59.00
4293;DHT22;2160;51.172;6.808;2024-03-08T12:48:25;16.70;61.80
4293;DHT22;2160;51.172;6.808;2024-03-08T12:50:52;16.80;58.00
4293;DHT22;2160;51.172;6.808;2024-03-08T12:53:20;16.80;58.00
4293;DHT22;2160;51.172;6.808;2024-03-08T12:55:48;16.70;58.90
4293;DHT22;2160;51.172;6.808;2024-03-08T12:58:15;16.60;58.20
4293;DHT22;2160;51.172;6.808;2024-03-08T13:00:43;16.90;62.80
4293;DHT22;2160;51.172;6.808;2024-03-08T13:03:10;17.10;58.70
4293;DHT22;2160;51.172;6.808;2024-03-08T13:05:38;17.50;55.20
4293;DHT22;2160;51.172;6.808;2024-03-08T13:08:08;17.90;55.80
4293;DHT22;2160;51.172;6.808;2024-03-08T13:10:38;18.70;54.30
4293;DHT22;2160;51.172;6.808;2024-03-08T13:13:06;18.70;50.50
4293;DHT22;2160;51.172;6.808;2024-03-08T13:15:35;18.90;51.30
4293;DHT22;2160;51.172;6.808;2024-03-08T13:18:02;19.10;50.30
4293;DHT22;2160;51.172;6.808;2024-03-08T13:20:31;19.80;50.30
4293;DHT22;2160;51.172;6.808;2024-03-08T13:23:00;20.10;47.90
4293;DHT22;2160;51.172;6.808;2024-03-08T13:25:32;19.90;47.00
4293;DHT22;2160;51.172;6.808;2024-03-08T13:27:59;19.60;48.90
4293;DHT22;2160;51.172;6.808;2024-03-08T13:30:26;19.30;45.70
4293;DHT22;2160;51.172;6.808;2024-03-08T13:32:53;19.10;45.40
4293;DHT22;2160;51.172;6.808;2024-03-08T13:35:20;19.50;47.00
4293;DHT22;2160;51.172;6.808;2024-03-08T13:37:51;19.20;44.60
4293;DHT22;2160;51.172;6.808;2024-03-08T13:40:19;19.10;48.50
4293;DHT22;2160;51.172;6.808;2024-03-08T13:42:47;19.10;46.00
4293;DHT22;2160;51.172;6.808;2024-03-08T13:45:14;19.20;46.70
4293;DHT22;2160;51.172;6.808;2024-03-08T13:47:43;19.50;45.40
4293;DHT22;2160;51.172;6.808;2024-03-08T13:50:12;20.00;47.80
4293;DHT22;2160;51.172;6.808;2024-03-08T13:52:39;20.80;48.30
4293;DHT22;2160;51.172;6.808;2024-03-08T13:55:07;21.20;41.90
4293;DHT22;2160;51.172;6.808;2024-03-08T13:57:35;21.30;44.90
4293;DHT22;2160;51.172;6.808;2024-03-08T14:00:05;21.40;40.60
4293;DHT22;2160;51.172;6.808;2024-03-08T14:02:39;21.60;42.30
4293;DHT22;2160;51.172;6.808;2024-03-08T14:05:07;21.60;40.50
4293;DHT22;2160;51.172;6.808;2024-03-08T14:07:34;22.40;40.80
4293;DHT22;2160;51.172;6.808;2024-03-08T14:10:02;23.20;36.50
4293;DHT22;2160;51.172;6.808;2024-03-08T14:12:29;24.10;35.00
4293;DHT22;2160;51.172;6.808;2024-03-08T14:14:57;24.80;33.40
4293;DHT22;2160;51.172;6.808;2024-03-08T14:17:25;24.70;32.50
4293;DHT22;2160;51.172;6.808;2024-03-08T14:19:52;24.50;31.00
4293;DHT22;2160;51.172;6.808;2024-03-08T14:22:20;25.30;31.80
4293;DHT22;2160;51.172;6.808;2024-03-08T14:24:47;26.60;29.50
4293;DHT22;2160;51.172;6.808;2024-03-08T14:27:15;27.40;26.90
4293;DHT22;2160;51.172;6.808;2024-03-08T14:29:44;27.20;26.50
4293;DHT22;2160;51.172;6.808;2024-03-08T14:32:12;27.30;26.80
4293;DHT22;2160;51.172;6.808;2024-03-08T14:34:40;26.80;25.40
4293;DHT22;2160;51.172;6.808;2024-03-08T14:37:07;26.60;26.40
4293;DHT22;2160;51.172;6.808;2024-03-08T14:39:37;26.60;24.00
4293;DHT22;2160;51.172;6.808;2024-03-08T14:42:04;26.80;23.70
4293;DHT22;2160;51.172;6.808;2024-03-08T14:44:34;26.10;23.90
4293;DHT22;2160;51.172;6.808;2024-03-08T14:47:01;26.20;24.20
4293;DHT22;2160;51.172;6.808;2024-03-08T14:49:32;26.20;23.60
4293;DHT22;2160;51.172;6.808;2024-03-08T14:52:02;26.50;23.50
4293;DHT22;2160;51.172;6.808;2024-03-08T14:54:40;27.00;23.70
4293;DHT22;2160;51.172;6.808;2024-03-08T14:57:09;27.20;21.90
4293;DHT22;2160;51.172;6.808;2024-03-08T14:59:35;27.80;22.20
4293;DHT22;2160;51.172;6.808;2024-03-08T15:02:04;27.50;20.80
4293;DHT22;2160;51.172;6.808;2024-03-08T15:04:34;27.70;21.40
4293;DHT22;2160;51.172;6.808;2024-03-08T15:07:01;25.90;20.70
4293;DHT22;2160;51.172;6.808;2024-03-08T15:09:31;24.00;23.70
4293;DHT22;2160;51.172;6.808;2024-03-08T15:12:06;21.90;24.00
4293;DHT22;2160;51.172;6.808;2024-03-08T15:14:33;20.60;25.70
4293;DHT22;2160;51.172;6.808;2024-03-08T15:17:00;19.40;26.40
4293;DHT22;2160;51.172;6.808;2024-03-08T15:19:34;18.70;27.80
4293;DHT22;2160;51.172;6.808;2024-03-08T15:22:01;18.10;28.80
4293;DHT22;2160;51.172;6.808;2024-03-08T15:24:28;17.60;28.20
4293;DHT22;2160;51.172;6.808;2024-03-08T15:26:55;17.30;30.10
4293;DHT22;2160;51.172;6.808;2024-03-08T15:29:23;17.00;31.10
4293;DHT22;2160;51.172;6.808;2024-03-08T15:31:52;16.50;31.50
4293;DHT22;2160;51.172;6.808;2024-03-08T15:34:19;16.00;32.40
4293;DHT22;2160;51.172;6.808;2024-03-08T15:36:50;15.80;33.70
4293;DHT22;2160;51.172;6.808;2024-03-08T15:39:17;15.70;33.40
4293;DHT22;2160;51.172;6.808;2024-03-08T15:41:46;15.60;34.90
4293;DHT22;2160;51.172;6.808;2024-03-08T15:44:13;15.30;32.60
4293;DHT22;2160;51.172;6.808;2024-03-08T15:46:41;15.50;34.40
4293;DHT22;2160;51.172;6.808;2024-03-08T15:49:08;15.40;34.30
4293;DHT22;2160;51.172;6.808;2024-03-08T15:51:36;15.30;35.40
4293;DHT22;2160;51.172;6.808;2024-03-08T15:54:05;15.20;36.10
4293;DHT22;2160;51.172;6.808;2024-03-08T15:56:33;15.00;36.10
4293;DHT22;2160;51.172;6.808;2024-03-08T15:59:01;14.80;35.90
4293;DHT22;2160;51.172;6.808;2024-03-08T16:01:32;14.60;37.30
4293;DHT22;2160;51.172;6.808;2024-03-08T16:03:59;14.80;38.40
4293;DHT22;2160;51.172;6.808;2024-03-08T16:06:26;14.80;36.70
4293;DHT22;2160;51.172;6.808;2024-03-08T16:08:53;14.70;36.80
4293;DHT22;2160;51.172;6.808;2024-03-08T16:11:21;14.60;38.10
4293;DHT22;2160;51.172;6.808;2024-03-08T16:13:48;14.70;38.60
4293;DHT22;2160;51.172;6.808;2024-03-08T16:16:15;14.70;38.10
4293;DHT22;2160;51.172;6.808;2024-03-08T16:18:42;14.50;38.00
4293;DHT22;2160;51.172;6.808;2024-03-08T16:21:09;14.60;39.00
4293;DHT22;2160;51.172;6.808;2024-03-08T16:23:37;14.50;38.20
4293;DHT22;2160;51.172;6.808;2024-03-08T16:26:04;14.40;39.50
4293;DHT22;2160;51.172;6.808;2024-03-08T16:28:33;14.40;39.40
4293;DHT22;2160;51.172;6.808;2024-03-08T16:31:05;14.30;40.30
4293;DHT22;2160;51.172;6.808;2024-03-08T16:33:33;14.20;40.70
4293;DHT22;2160;51.172;6.808;2024-03-08T16:36:01;14.20;40.80
4293;DHT22;2160;51.172;6.808;2024-03-08T16:38:29;14.30;42.20
4293;DHT22;2160;51.172;6.808;2024-03-08T16:40:56;14.30;41.40
4293;DHT22;2160;51.172;6.808;2024-03-08T16:43:26;14.20;41.60
4293;DHT22;2160;51.172;6.808;2024-03-08T16:45:54;14.20;41.30
4293;DHT22;2160;51.172;6.808;2024-03-08T16:48:24;14.20;41.80
4293;DHT22;2160;51.172;6.808;2024-03-08T16:50:52;14.20;41.70
4293;DHT22;2160;51.172;6.808;2024-03-08T16:53:20;14.10;42.50
4293;DHT22;2160;51.172;6.808;2024-03-08T16:55:47;14.00;43.00
4293;DHT22;2160;51.172;6.808;2024-03-08T16:58:16;13.90;42.60
4293;DHT22;2160;51.172;6.808;2024-03-08T17:00:43;13.80;42.50
4293;DHT22;2160;51.172;6.808;2024-03-08T17:03:12;13.80;43.60
4293;DHT22;2160;51.172;6.808;2024-03-08T17:05:39;14.00;43.30
4293;DHT22;2160;51.172;6.808;2024-03-08T17:08:10;13.80;43.40
4293;DHT22;2160;51.172;6.808;2024-03-08T17:10:37;13.60;43.50
4293;DHT22;2160;51.172;6.808;2024-03-08T17:13:06;13.60;43.30
4293;DHT22;2160;51.172;6.808;2024-03-08T17:15:34;13.50;42.80
4293;DHT22;2160;51.172;6.808;2024-03-08T17:18:02;13.50;44.30
4293;DHT22;2160;51.172;6.808;2024-03-08T17:20:34;13.40;44.30
4293;DHT22;2160;51.172;6.808;2024-03-08T17:23:03;13.50;42.80
4293;DHT22;2160;51.172;6.808;2024-03-08T17:25:32;13.30;43.80
4293;DHT22;2160;51.172;6.808;2024-03-08T17:28:01;13.40;43.60
4293;DHT22;2160;51.172;6.808;2024-03-08T17:30:30;13.30;44.60
4293;DHT22;2160;51.172;6.808;2024-03-08T17:32:59;13.20;44.00
4293;DHT22;2160;51.172;6.808;2024-03-08T17:35:30;13.10;43.30
4293;DHT22;2160;51.172;6.808;2024-03-08T17:37:59;13.00;43.30
4293;DHT22;2160;51.172;6.808;2024-03-08T17:40:28;13.00;43.10
4293;DHT22;2160;51.172;6.808;2024-03-08T17:42:56;13.00;43.60
4293;DHT22;2160;51.172;6.808;2024-03-08T17:45:25;13.10;46.40
4293;DHT22;2160;51.172;6.808;2024-03-08T17:47:54;13.00;44.20
4293;DHT22;2160;51.172;6.808;2024-03-08T17:50:21;13.00;45.20
4293;DHT22;2160;51.172;6.808;2024-03-08T17:52:50;12.90;46.10
4293;DHT22;2160;51.172;6.808;2024-03-08T17:55:20;12.80;46.10
4293;DHT22;2160;51.172;6.808;2024-03-08T17:57:51;12.70;45.80
4293;DHT22;2160;51.172;6.808;2024-03-08T18:00:20;12.70;46.70
4293;DHT22;2160;51.172;6.808;2024-03-08T18:02:52;12.60;45.80
4293;DHT22;2160;51.172;6.808;2024-03-08T18:05:20;12.60;47.60
4293;DHT22;2160;51.172;6.808;2024-03-08T18:07:49;12.50;47.30
4293;DHT22;2160;51.172;6.808;2024-03-08T18:10:16;12.40;48.40
4293;DHT22;2160;51.172;6.808;2024-03-08T18:12:49;12.40;48.80
4293;DHT22;2160;51.172;6.808;2024-03-08T18:15:17;12.30;49.60
4293;DHT22;2160;51.172;6.808;2024-03-08T18:17:51;12.30;49.30
4293;DHT22;2160;51.172;6.808;2024-03-08T18:20:18;12.10;49.70
4293;DHT22;2160;51.172;6.808;2024-03-08T18:22:51;12.00;51.70
4293;DHT22;2160;51.172;6.808;2024-03-08T18:25:19;12.10;50.20
4293;DHT22;2160;51.172;6.808;2024-03-08T18:27:50;11.90;50.30
4293;DHT22;2160;51.172;6.808;2024-03-08T18:30:17;11.80;51.00
4293;DHT22;2160;51.172;6.808;2024-03-08T18:32:46;11.80;51.00
4293;DHT22;2160;51.172;6.808;2024-03-08T18:35:14;11.70;51.40
4293;DHT22;2160;51.172;6.808;2024-03-08T18:37:41;11.70;51.50
4293;DHT22;2160;51.172;6.808;2024-03-08T18:40:10;11.60;51.40
4293;DHT22;2160;51.172;6.808;2024-03-08T18:42:39;11.50;51.50
4293;DHT22;2160;51.172;6.808;2024-03-08T18:45:09;11.50;53.20
4293;DHT22;2160;51.172;6.808;2024-03-08T18:47:37;11.50;52.10
4293;DHT22;2160;51.172;6.808;2024-03-08T18:50:05;11.40;52.40
4293;DHT22;2160;51.172;6.808;2024-03-08T18:52:33;11.40;53.50
4293;DHT22;2160;51.172;6.808;2024-03-08T18:55:00;11.30;54.30
4293;DHT22;2160;51.172;6.808;2024-03-08T18:57:27;11.40;53.60
4293;DHT22;2160;51.172;6.808;2024-03-08T18:59:54;11.20;53.20
4293;DHT22;2160;51.172;6.808;2024-03-08T19:02:23;11.30;54.90
4293;DHT22;2160;51.172;6.808;2024-03-08T19:04:50;11.10;54.70
4293;DHT22;2160;51.172;6.808;2024-03-08T19:07:18;11.10;53.90
4293;DHT22;2160;51.172;6.808;2024-03-08T19:09:47;11.10;55.00
4293;DHT22;2160;51.172;6.808;2024-03-08T19:12:16;11.00;54.90
4293;DHT22;2160;51.172;6.808;2024-03-08T19:14:44;11.00;55.00
4293;DHT22;2160;51.172;6.808;2024-03-08T19:17:13;10.90;55.70
4293;DHT22;2160;51.172;6.808;2024-03-08T19:19:42;10.90;55.50
4293;DHT22;2160;51.172;6.808;2024-03-08T19:22:09;10.80;55.30
4293;DHT22;2160;51.172;6.808;2024-03-08T19:24:39;10.70;55.90
4293;DHT22;2160;51.172;6.808;2024-03-08T19:27:06;10.70;57.70
4293;DHT22;2160;51.172;6.808;2024-03-08T19:29:35;10.60;57.00
4293;DHT22;2160;51.172;6.808;2024-03-08T19:32:03;10.60;56.90
4293;DHT22;2160;51.172;6.808;2024-03-08T19:34:31;10.50;56.50
4293;DHT22;2160;51.172;6.808;2024-03-08T19:36:59;10.50;56.90
4293;DHT22;2160;51.172;6.808;2024-03-08T19:39:26;10.50;57.70
4293;DHT22;2160;51.172;6.808;2024-03-08T19:41:53;10.40;58.20
4293;DHT22;2160;51.172;6.808;2024-03-08T19:44:20;10.40;58.50
4293;DHT22;2160;51.172;6.808;2024-03-08T19:46:47;10.30;59.50
4293;DHT22;2160;51.172;6.808;2024-03-08T19:49:14;10.30;59.50
4293;DHT22;2160;51.172;6.808;2024-03-08T19:51:42;10.40;60.10
4293;DHT22;2160;51.172;6.808;2024-03-08T19:54:13;10.20;60.40
4293;DHT22;2160;51.172;6.808;2024-03-08T19:56:40;10.20;61.70
4293;DHT22;2160;51.172;6.808;2024-03-08T19:59:09;10.10;60.80
4293;DHT22;2160;51.172;6.808;2024-03-08T20:01:36;10.30;61.20
4293;DHT22;2160;51.172;6.808;2024-03-08T20:04:04;10.10;61.50
4293;DHT22;2160;51.172;6.808;2024-03-08T20:06:31;10.00;63.00
4293;DHT22;2160;51.172;6.808;2024-03-08T20:09:00;10.00;62.90
4293;DHT22;2160;51.172;6.808;2024-03-08T20:11:28;9.90;63.60
4293;DHT22;2160;51.172;6.808;2024-03-08T20:13:55;10.00;64.10
4293;DHT22;2160;51.172;6.808;2024-03-08T20:16:24;10.00;64.10
4293;DHT22;2160;51.172;6.808;2024-03-08T20:18:52;9.90;64.30
4293;DHT22;2160;51.172;6.808;2024-03-08T20:21:19;9.90;66.40
4293;DHT22;2160;51.172;6.808;2024-03-08T20:23:46;10.00;64.20
4293;DHT22;2160;51.172;6.808;2024-03-08T20:26:15;10.00;64.80
4293;DHT22;2160;51.172;6.808;2024-03-08T20:28:43;9.80;66.40
4293;DHT22;2160;51.172;6.808;2024-03-08T20:31:10;9.80;65.60
4293;DHT22;2160;51.172;6.808;2024-03-08T20:33:39;9.80;67.70
4293;DHT22;2160;51.172;6.808;2024-03-08T20:36:09;9.70;66.20
4293;DHT22;2160;51.172;6.808;2024-03-08T20:38:36;9.70;67.10
4293;DHT22;2160;51.172;6.808;2024-03-08T20:41:06;9.60;67.90
4293;DHT22;2160;51.172;6.808;2024-03-08T20:43:34;9.60;68.20
4293;DHT22;2160;51.172;6.808;2024-03-08T20:46:03;9.60;67.50
4293;DHT22;2160;51.172;6.808;2024-03-08T20:48:30;9.60;67.60
4293;DHT22;2160;51.172;6.808;2024-03-08T20:50:57;9.60;68.00
4293;DHT22;2160;51.172;6.808;2024-03-08T20:53:26;9.60;68.10
4293;DHT22;2160;51.172;6.808;2024-03-08T20:55:53;9.70;68.40
4293;DHT22;2160;51.172;6.808;2024-03-08T20:58:21;9.50;69.30
4293;DHT22;2160;51.172;6.808;2024-03-08T21:00:48;9.50;69.60
4293;DHT22;2160;51.172;6.808;2024-03-08T21:03:21;9.50;73.80
4293;DHT22;2160;51.172;6.808;2024-03-08T21:05:49;9.50;73.30
4293;DHT22;2160;51.172;6.808;2024-03-08T21:08:17;9.40;76.50
4293;DHT22;2160;51.172;6.808;2024-03-08T21:10:50;9.40;74.60
4293;DHT22;2160;51.172;6.808;2024-03-08T21:13:19;9.30;73.30
4293;DHT22;2160;51.172;6.808;2024-03-08T21:15:47;9.40;76.70